O'Neals, CA (93645)

11:16 AM PST on February 10, 2016 (GMT -0800)
Weathervise | | Change Station
CLOSE
Current Station
Personal Weather Station
Location: Coarsegold, CA
Elevation: 1266 ft
Nearby Weather Stations

Elev 1266 ft 37.18 °N, 119.77 °W | Updated 5 seconds ago

Partly Cloudy
Partly Cloudy
69.7 °F
Feels Like 69.7 °F
N
0.0
Wind Variable Wind from NNE
Gusts 4.0 mph

Today
High -- | Low -- °F
--% Chance of Precip.
Yesterday
High -- | Low -- °F
Precip. -- in
Pressure 30.26 in
Visibility 6.0 miles
Clouds Few 15000 ft
Scattered Clouds 25000 ft
Dew Point 46 °F
Humidity 42%
Rainfall 0.00 in
Snow Depth Not available.
6:53 AM 5:33 PM
Waxing Crescent, 7% visible
METAR KFAT 101853Z 11003KT 6SM HZ FEW150 SCT250 17/09 A3027 RMK AO2 SLP247 T01720094
Pressure 30.26 in
Visibility 6.0 miles
Clouds Few 15000 ft
Scattered Clouds 25000 ft
Dew Point 46 °F
Humidity 42%
Rainfall 0.00 in
Snow Depth Not available.
6:53 AM 5:33 PM
Waxing Crescent, 7% visible
METAR KFAT 101853Z 11003KT 6SM HZ FEW150 SCT250 17/09 A3027 RMK AO2 SLP247 T01720094

10-Day Weather Forecast

Almanac

Astronomy

Feb. 10, 2016 Rise Set
Actual Time
Civil Twilight
Nautical Twilight
Astronomical Twilight
Moon
Length of Visible Light
Length of Day
Tomorrow will be .
, % of the Moon is Illuminated

Today's Extremes

State Highs State Lows

Community

WunderPhotos

Upload Photos

1,891,922 photos uploaded!

WunderBlog® & News

Nearby

Air Quality

  Air Quality AQ Index Pollutant
Not available.

Snow Depth

Station Depth Elevation

Earthquake Activity

City Distance Mag. Time & Date
Minimum magnitude displayed is 2.5.

Coastal Water Temperatures

Place Temperature

Stations

Nearby Weather Stations

Station Location Temp. Windchill Dew Point Humidity Wind Precip. Elev Updated Type
                   

Watches & Warnings

There are currently no watches in effect.